Main page
METAR-TAF:

METAR-TAF

Airports :

Mangalore, India

Mangalore Airport

latitude: 12-55N, longitude: 074-53E, elevation: 102 m

Current weather observation

The report was made 39 minutes ago, at 21:00 UTC
Calm wind
Temperature 25°C
Humidity 83%
Pressure 1013 hPa
Visibility: 6000 m

METAR: VOML 212100Z 00000KT 6000 NSC 25/22 Q1013 NOSIG

Time: 03:09 (21:39 UTC)

Forecast

The report was made 1 hour and 39 minutes ago, at 20:00 UTC
Forecast valid from 21 at 21 UTC to 22 at 06 UTC
Wind 5 kt from the East
Visibility: 6000 m
Few clouds at a height of 1500 ft
Temporary
from 22 at 00 UTC to 22 at 03 UTC
Visibility: 3000 m
Few clouds at a height of 1000 ft
mist

TAF: VOML 212000Z 2121/2206 09005KT 6000 FEW015 TEMPO 2200/2203 3000 BR FEW010

Weather observations and forecasts of more than 4000 airports (METAR and TAF reports).

The available stations are represented by yellow and red dots on the map.

Hover mouse over dot to see the name of the station.

Then click to see weather observations and forecasts.

To change the map : click on the green buttons with a black cross to zoom in, on the green button with a dash to zoom out, or on the green arrows for adjacent maps.


METAR-TAF: